Observation data for McLean on 01/19/2019      Previous  Date  Next       Current Mesonet Observations  Soil Data  Daily Summary Page  Observations in Plain Language
KMCS 190600Z 35027G38KT M01/M04 A2995 RMK A01 T10081039  RH  080%=      5-min Rain = 0
KMCS 190605Z 35024G35KT M01/M04 A2995 RMK A01 T10081039  RH  080%=      5-min Rain = 0
KMCS 190610Z 35026G32KT M01/M04 A2995 RMK A01 T10081039  RH  080%=      5-min Rain = 0
KMCS 190615Z 35024G32KT M01/M04 A2995 RMK A01 T10071038  RH  080%=      5-min Rain = 0
KMCS 190620Z 35026G37KT M01/M04 A2996 RMK A01 T10071038  RH  080%=      5-min Rain = 0
KMCS 190625Z 35027G35KT M01/M04 A2996 RMK A01 T10061038  RH  079%=      5-min Rain = 0
KMCS 190630Z 35025G33KT M01/M04 A2996 RMK A01 T10051038  RH  079%=      5-min Rain = 0
KMCS 190635Z 35026G35KT M01/M04 A2997 RMK A01 T10051038  RH  079%=      5-min Rain = 0
KMCS 190640Z 35025G32KT M00/M04 A2997 RMK A01 T10041038  RH  078%=      5-min Rain = 0
KMCS 190645Z 35028G38KT M00/M04 A2997 RMK A01 T10041038  RH  078%=      5-min Rain = 0
KMCS 190650Z 34029G36KT M00/M04 A2997 RMK A01 T10041038  RH  078%=      5-min Rain = 0
KMCS 190655Z 34029G37KT M00/M04 A2997 RMK A01 T10041038  RH  079%=      5-min Rain = 0
KMCS 190700Z 34028G38KT M00/M04 A2998 RMK A01 T10041037  RH  079%=      5-min Rain = 0
KMCS 190705Z 34030G38KT M00/M04 A2998 RMK A01 T10041036  RH  079%=      5-min Rain = 0
KMCS 190710Z 34028G41KT M00/M04 A2998 RMK A01 T10041035  RH  080%=      5-min Rain = 0
KMCS 190715Z 34025G32KT M00/M04 A2998 RMK A01 T10041035  RH  080%=      5-min Rain = 0
KMCS 190720Z 34025G35KT M00/M04 A2999 RMK A01 T10041035  RH  080%=      5-min Rain = 0
KMCS 190725Z 34028G34KT M00/M04 A2999 RMK A01 T10041036  RH  079%=      5-min Rain = 0
KMCS 190730Z 34031G39KT M00/M04 A2999 RMK A01 T10031040  RH  076%=      5-min Rain = 0
KMCS 190735Z 34028G37KT M00/M04 A2999 RMK A01 T10041044  RH  075%=      5-min Rain = 0
KMCS 190740Z 34030G43KT M01/M05 A30 RMK A01 T10061047  RH  074%=      5-min Rain = 0
KMCS 190745Z 34029G37KT M01/M05 A30 RMK A01 T10091048  RH  075%=      5-min Rain = 0
KMCS 190750Z 34026G36KT M01/M05 A30 RMK A01 T10101047  RH  076%=      5-min Rain = 0
KMCS 190755Z 33027G34KT M01/M05 A30 RMK A01 T10111047  RH  077%=      5-min Rain = 0
KMCS 190800Z 34029G36KT M01/M05 A30 RMK A01 T10121050  RH  076%=      5-min Rain = 0
KMCS 190805Z 34027G34KT M01/M05 A30 RMK A01 T10131051  RH  075%=      5-min Rain = 0
KMCS 190810Z 33026G35KT M01/M05 A30 RMK A01 T10121050  RH  076%=      5-min Rain = 0
KMCS 190815Z 33028G38KT M02/M05 A3001 RMK A01 T10151051  RH  076%=      5-min Rain = 0
KMCS 190820Z 33028G35KT M02/M05 A3001 RMK A01 T10181054  RH  077%=      5-min Rain = 0
KMCS 190825Z 34028G37KT M02/M06 A3001 RMK A01 T10201056  RH  077%=      5-min Rain = 0
KMCS 190830Z 33027G34KT M02/M06 A3001 RMK A01 T10221058  RH  077%=      5-min Rain = 0
KMCS 190835Z 33026G34KT M02/M06 A3002 RMK A01 T10241059  RH  077%=      5-min Rain = 0
KMCS 190840Z 33030G41KT M03/M06 A3002 RMK A01 T10251062  RH  076%=      5-min Rain = 0
KMCS 190845Z 34027G36KT M03/M06 A3002 RMK A01 T10261064  RH  075%=      5-min Rain = 0
KMCS 190850Z 34024G31KT M03/M06 A3003 RMK A01 T10271063  RH  076%=      5-min Rain = 0
KMCS 190855Z 34026G34KT M03/M06 A3003 RMK A01 T10271063  RH  077%=      5-min Rain = 0
KMCS 190900Z 34025G35KT M03/M06 A3004 RMK A01 T10281063  RH  077%=      5-min Rain = 0
KMCS 190905Z 34024G30KT M03/M06 A3004 RMK A01 T10271063  RH  077%=      5-min Rain = 0
KMCS 190910Z 34026G35KT M03/M06 A3004 RMK A01 T10271062  RH  077%=      5-min Rain = 0
KMCS 190915Z 34026G35KT M03/M06 A3005 RMK A01 T10261062  RH  076%=      5-min Rain = 0
KMCS 190920Z 34026G38KT M03/M06 A3005 RMK A01 T10271063  RH  076%=      5-min Rain = 0
KMCS 190925Z 34026G36KT M03/M06 A3006 RMK A01 T10271064  RH  076%=      5-min Rain = 0
KMCS 190930Z 34028G35KT M03/M06 A3006 RMK A01 T10271064  RH  076%=      5-min Rain = 0
KMCS 190935Z 34029G38KT M03/M07 A3006 RMK A01 T10271065  RH  075%=      5-min Rain = 0
KMCS 190940Z 34026G33KT M03/M07 A3007 RMK A01 T10281065  RH  076%=      5-min Rain = 0
KMCS 190945Z 34025G32KT M03/M06 A3007 RMK A01 T10281064  RH  077%=      5-min Rain = 0
KMCS 190950Z 34023G30KT M03/M06 A3007 RMK A01 T10271061  RH  077%=      5-min Rain = 0
KMCS 190955Z 33026G33KT M03/M06 A3007 RMK A01 T10261061  RH  077%=      5-min Rain = 0
KMCS 191000Z 33028G37KT M03/M06 A3007 RMK A01 T10281063  RH  076%=      5-min Rain = 0
KMCS 191005Z 33027G34KT M03/M07 A3007 RMK A01 T10281065  RH  076%=      5-min Rain = 0
KMCS 191010Z 33030G37KT M03/M07 A3007 RMK A01 T10291066  RH  076%=      5-min Rain = 0
KMCS 191015Z 34028G34KT M03/M07 A3007 RMK A01 T10311068  RH  075%=      5-min Rain = 0
KMCS 191020Z 34027G35KT M03/M07 A3007 RMK A01 T10331071  RH  075%=      5-min Rain = 0
KMCS 191025Z 34028G39KT M03/M07 A3007 RMK A01 T10341072  RH  075%=      5-min Rain = 0
KMCS 191030Z 34026G37KT M04/M07 A3007 RMK A01 T10351074  RH  075%=      5-min Rain = 0
KMCS 191035Z 34026G33KT M04/M07 A3007 RMK A01 T10361073  RH  076%=      5-min Rain = 0
KMCS 191040Z 34023G29KT M04/M07 A3008 RMK A01 T10371072  RH  077%=      5-min Rain = 0
KMCS 191045Z 34022G30KT M04/M07 A3008 RMK A01 T10381070  RH  078%=      5-min Rain = 0
KMCS 191050Z 33024G30KT M04/M07 A3008 RMK A01 T10381070  RH  078%=      5-min Rain = 0
KMCS 191055Z 33023G31KT M04/M07 A3008 RMK A01 T10381071  RH  078%=      5-min Rain = 0
KMCS 191100Z 33024G31KT M04/M07 A3008 RMK A01 T10391072  RH  078%=      5-min Rain = 0
KMCS 191105Z 33023G29KT M04/M07 A3009 RMK A01 T10391073  RH  077%=      5-min Rain = 0
KMCS 191110Z 33024G32KT M04/M07 A3009 RMK A01 T10391074  RH  077%=      5-min Rain = 0
KMCS 191115Z 34024G29KT M04/M07 A3009 RMK A01 T10391074  RH  077%=      5-min Rain = 0
KMCS 191120Z 33023G30KT M04/M07 A3009 RMK A01 T10401074  RH  077%=      5-min Rain = 0
KMCS 191125Z 33023G30KT M04/M07 A3009 RMK A01 T10391074  RH  077%=      5-min Rain = 0
KMCS 191130Z 33024G30KT M04/M07 A3009 RMK A01 T10391073  RH  077%=      5-min Rain = 0
KMCS 191135Z 33024G30KT M04/M07 A3009 RMK A01 T10391073  RH  077%=      5-min Rain = 0
KMCS 191140Z 33026G32KT M04/M07 A3009 RMK A01 T10391073  RH  077%=      5-min Rain = 0
KMCS 191145Z 33025G32KT M04/M07 A301 RMK A01 T10391073  RH  077%=      5-min Rain = 0
KMCS 191150Z 33026G35KT M04/M07 A301 RMK A01 T10391072  RH  078%=      5-min Rain = 0
KMCS 191155Z 33026G33KT M04/M07 A301 RMK A01 T10391072  RH  078%=      5-min Rain = 0
KMCS 191200Z 34024G30KT M04/M07 A3011 RMK A01 T10391072  RH  078%=      5-min Rain = 0
KMCS 191205Z 34024G31KT M04/M07 A3011 RMK A01 T10391072  RH  078%=      5-min Rain = 0
KMCS 191210Z 34023G30KT M04/M07 A3011 RMK A01 T10401072  RH  079%=      5-min Rain = 0
KMCS 191215Z 34025G33KT M04/M07 A3011 RMK A01 T10401071  RH  079%=      5-min Rain = 0
KMCS 191220Z 34025G33KT M04/M07 A3012 RMK A01 T10391072  RH  078%=      5-min Rain = 0
KMCS 191225Z 34023G29KT M04/M07 A3012 RMK A01 T10401072  RH  078%=      5-min Rain = 0
KMCS 191230Z 34022G27KT M04/M07 A3012 RMK A01 T10401071  RH  079%=      5-min Rain = 0
KMCS 191235Z 34021G29KT M04/M07 A3013 RMK A01 T10401070  RH  080%=      5-min Rain = 0
KMCS 191240Z 34020G27KT M04/M07 A3013 RMK A01 T10401069  RH  080%=      5-min Rain = 0
KMCS 191245Z 34022G29KT M04/M07 A3013 RMK A01 T10391068  RH  081%=      5-min Rain = 0
KMCS 191250Z 34022G30KT M04/M07 A3014 RMK A01 T10391067  RH  081%=      5-min Rain = 0
KMCS 191255Z 33023G30KT M04/M07 A3014 RMK A01 T10381068  RH  080%=      5-min Rain = 0
KMCS 191300Z 33022G31KT M04/M07 A3014 RMK A01 T10381069  RH  079%=      5-min Rain = 0
KMCS 191305Z 33022G30KT M04/M07 A3014 RMK A01 T10381070  RH  079%=      5-min Rain = 0
KMCS 191310Z 34022G31KT M04/M07 A3015 RMK A01 T10391071  RH  078%=      5-min Rain = 0
KMCS 191315Z 34023G31KT M04/M07 A3015 RMK A01 T10391072  RH  078%=      5-min Rain = 0
KMCS 191320Z 33025G33KT M04/M07 A3015 RMK A01 T10391072  RH  078%=      5-min Rain = 0
KMCS 191325Z 33025G32KT M04/M07 A3016 RMK A01 T10391073  RH  077%=      5-min Rain = 0
KMCS 191330Z 34026G34KT M04/M07 A3016 RMK A01 T10391074  RH  077%=      5-min Rain = 0
KMCS 191335Z 34027G34KT M04/M08 A3016 RMK A01 T10391075  RH  076%=      5-min Rain = 0
KMCS 191340Z 34026G34KT M04/M08 A3016 RMK A01 T10401075  RH  076%=      5-min Rain = 0
KMCS 191345Z 34024G33KT M04/M08 A3016 RMK A01 T10411075  RH  077%=      5-min Rain = 0
KMCS 191350Z 34026G33KT M04/M07 A3016 RMK A01 T10401074  RH  078%=      5-min Rain = 0
KMCS 191355Z 34027G38KT M04/M07 A3017 RMK A01 T10401074  RH  078%=      5-min Rain = 0
KMCS 191400Z 33026G32KT M04/M07 A3017 RMK A01 T10401073  RH  078%=      5-min Rain = 0
KMCS 191405Z 34026G32KT M04/M07 A3017 RMK A01 T10401073  RH  077%=      5-min Rain = 0
KMCS 191410Z 34025G33KT M04/M07 A3017 RMK A01 T10401073  RH  078%=      5-min Rain = 0
KMCS 191415Z 34024G34KT M04/M07 A3017 RMK A01 T10391072  RH  078%=      5-min Rain = 0
KMCS 191420Z 34025G32KT M04/M07 A3018 RMK A01 T10381072  RH  078%=      5-min Rain = 0
KMCS 191425Z 34024G33KT M04/M07 A3018 RMK A01 T10381071  RH  077%=      5-min Rain = 0
KMCS 191430Z 34024G34KT M04/M07 A3018 RMK A01 T10371071  RH  077%=      5-min Rain = 0
KMCS 191435Z 34028G34KT M04/M07 A3018 RMK A01 T10371072  RH  076%=      5-min Rain = 0
KMCS 191440Z 34025G32KT M04/M07 A3019 RMK A01 T10351072  RH  076%=      5-min Rain = 0
KMCS 191445Z 34025G33KT M03/M07 A3019 RMK A01 T10341072  RH  075%=      5-min Rain = 0
KMCS 191450Z 34023G29KT M03/M07 A3019 RMK A01 T10321071  RH  075%=      5-min Rain = 0
KMCS 191455Z 34025G31KT M03/M07 A3019 RMK A01 T10311070  RH  075%=      5-min Rain = 0
KMCS 191500Z 34024G33KT M03/M07 A3019 RMK A01 T10281069  RH  074%=      5-min Rain = 0
KMCS 191505Z 34026G35KT M03/M07 A302 RMK A01 T10261068  RH  073%=      5-min Rain = 0
KMCS 191510Z 34029G38KT M03/M07 A302 RMK A01 T10251068  RH  072%=      5-min Rain = 0
KMCS 191515Z 34029G35KT M02/M07 A302 RMK A01 T10231068  RH  071%=      5-min Rain = 0
KMCS 191520Z 33029G36KT M02/M07 A302 RMK A01 T10201067  RH  070%=      5-min Rain = 0
KMCS 191525Z 33028G37KT M02/M07 A3021 RMK A01 T10191068  RH  069%=      5-min Rain = 0
KMCS 191530Z 34029G36KT M02/M07 A3022 RMK A01 T10191069  RH  069%=      5-min Rain = 0
KMCS 191535Z 34025G31KT M02/M07 A3022 RMK A01 T10171069  RH  068%=      5-min Rain = 0
KMCS 191540Z 34029G36KT M02/M07 A3022 RMK A01 T10181072  RH  066%=      5-min Rain = 0
KMCS 191545Z 34028G38KT M02/M07 A3022 RMK A01 T10161071  RH  066%=      5-min Rain = 0
KMCS 191550Z 34027G35KT M01/M07 A3023 RMK A01 T10141071  RH  065%=      5-min Rain = 0
KMCS 191555Z 34027G34KT M01/M07 A3023 RMK A01 T10131070  RH  065%=      5-min Rain = 0
KMCS 191600Z 35030G39KT M02/M07 A3024 RMK A01 T10161070  RH  066%=      5-min Rain = 0
KMCS 191605Z 35027G34KT M01/M07 A3024 RMK A01 T10131068  RH  066%=      5-min Rain = 0
KMCS 191610Z 34028G36KT M01/M07 A3024 RMK A01 T10121067  RH  066%=      5-min Rain = 0
KMCS 191615Z 34029G40KT M01/M07 A3024 RMK A01 T10121068  RH  065%=      5-min Rain = 0
KMCS 191620Z 35025G33KT M01/M07 A3025 RMK A01 T10091066  RH  065%=      5-min Rain = 0
KMCS 191625Z 35026G33KT M01/M07 A3025 RMK A01 T10091066  RH  065%=      5-min Rain = 0
KMCS 191630Z 34021G27KT M01/M06 A3025 RMK A01 T10081064  RH  066%=      5-min Rain = 0
KMCS 191635Z 34023G33KT M01/M07 A3025 RMK A01 T10061065  RH  065%=      5-min Rain = 0
KMCS 191640Z 34025G32KT M01/M07 A3025 RMK A01 T10091066  RH  065%=      5-min Rain = 0
KMCS 191645Z 34026G33KT M01/M07 A3026 RMK A01 T10081066  RH  065%=      5-min Rain = 0
KMCS 191650Z 34024G32KT M00/M06 A3026 RMK A01 T10031063  RH  064%=      5-min Rain = 0
KMCS 191655Z 34026G33KT M00/M06 A3026 RMK A01 T10011063  RH  063%=      5-min Rain = 0
KMCS 191700Z 34025G33KT M00/M06 A3026 RMK A01 T10031064  RH  063%=      5-min Rain = 0
KMCS 191705Z 35025G34KT 00/M06 A3026 RMK A01 T00011063  RH  062%=      5-min Rain = 0
KMCS 191710Z 34026G35KT M00/M06 A3026 RMK A01 T10011064  RH  063%=      5-min Rain = 0
KMCS 191715Z 34027G35KT 00/07 A3026 RMK A01 T00000-65  RH  062%=      5-min Rain = 0
KMCS 191720Z 35029G35KT 00/07 A3026 RMK A01 T00-00-67  RH  061%=      5-min Rain = 0
KMCS 191725Z 34028G35KT 00/07 A3026 RMK A01 T00000-67  RH  061%=      5-min Rain = 0
KMCS 191730Z 34026G32KT 00/M07 A3026 RMK A01 T00031066  RH  060%=      5-min Rain = 0
KMCS 191735Z 35025G31KT 00/M07 A3026 RMK A01 T00041066  RH  060%=      5-min Rain = 0
KMCS 191740Z 34023G28KT 01/M06 A3027 RMK A01 T00061063  RH  060%=      5-min Rain = 0
KMCS 191745Z 34023KT 00/M06 A3027 RMK A01 T00041064  RH  060%=      5-min Rain = 0
KMCS 191750Z 33022G29KT 00/M06 A3027 RMK A01 T00031063  RH  061%=      5-min Rain = 0
KMCS 191755Z 34020G26KT 01/M06 A3027 RMK A01 T00101062  RH  059%=      5-min Rain = 0
KMCS 191800Z 34022G28KT 01/M06 A3027 RMK A01 T00091063  RH  059%=      5-min Rain = 0
KMCS 191805Z 35024G32KT 01/M07 A3027 RMK A01 T00091067  RH  057%=      5-min Rain = 0
KMCS 191810Z 35024G30KT 01/M07 A3027 RMK A01 T00051069  RH  057%=      5-min Rain = 0
KMCS 191815Z 34023G30KT 01/M07 A3027 RMK A01 T00091067  RH  056%=      5-min Rain = 0
KMCS 191820Z 34023G32KT 01/M07 A3026 RMK A01 T00101068  RH  056%=      5-min Rain = 0
KMCS 191825Z 35024G30KT 01/M07 A3026 RMK A01 T00091068  RH  056%=      5-min Rain = 0
KMCS 191830Z 34022G29KT 01/M07 A3026 RMK A01 T00121066  RH  056%=      5-min Rain = 0
KMCS 191835Z 34024G31KT 01/M07 A3026 RMK A01 T00141067  RH  055%=      5-min Rain = 0
KMCS 191840Z 33025G33KT 01/M07 A3026 RMK A01 T00111068  RH  056%=      5-min Rain = 0
KMCS 191845Z 34024G30KT 01/M07 A3026 RMK A01 T00131067  RH  055%=      5-min Rain = 0
KMCS 191850Z 34025G31KT 01/M07 A3026 RMK A01 T00131067  RH  055%=      5-min Rain = 0
KMCS 191855Z 33027G33KT 01/M07 A3026 RMK A01 T00131068  RH  055%=      5-min Rain = 0
KMCS 191900Z 34024G33KT 02/M07 A3026 RMK A01 T00171067  RH  053%=      5-min Rain = 0
KMCS 191905Z 34022G27KT 02/M07 A3025 RMK A01 T00211066  RH  053%=      5-min Rain = 0
KMCS 191910Z 33024G31KT 02/M07 A3024 RMK A01 T00181069  RH  053%=      5-min Rain = 0
KMCS 191915Z 34024G32KT 02/M07 A3024 RMK A01 T00201070  RH  051%=      5-min Rain = 0
KMCS 191920Z 34025G30KT 02/M07 A3024 RMK A01 T00201071  RH  051%=      5-min Rain = 0
KMCS 191925Z 34022G29KT 02/M07 A3023 RMK A01 T00231069  RH  051%=      5-min Rain = 0
KMCS 191930Z 34021G27KT 02/M07 A3023 RMK A01 T00211070  RH  051%=      5-min Rain = 0
KMCS 191935Z 34021G29KT 03/M07 A3023 RMK A01 T00261068  RH  050%=      5-min Rain = 0
KMCS 191940Z 33026G31KT 02/M07 A3022 RMK A01 T00231073  RH  049%=      5-min Rain = 0
KMCS 191945Z 34022G28KT 02/M07 A3023 RMK A01 T00241071  RH  050%=      5-min Rain = 0
KMCS 191950Z 33022G30KT 03/M07 A3022 RMK A01 T00261072  RH  048%=      5-min Rain = 0
KMCS 191955Z 33024G29KT 03/M07 A3022 RMK A01 T00251072  RH  049%=      5-min Rain = 0
KMCS 192000Z 34024G31KT 03/M07 A3022 RMK A01 T00251073  RH  048%=      5-min Rain = 0
KMCS 192005Z 34022G30KT 03/M07 A3022 RMK A01 T00291069  RH  048%=      5-min Rain = 0
KMCS 192010Z 34022G28KT 03/M07 A3022 RMK A01 T00271070  RH  049%=      5-min Rain = 0
KMCS 192015Z 34019G25KT 03/M07 A3022 RMK A01 T00301068  RH  049%=      5-min Rain = 0
KMCS 192020Z 35021G26KT 03/M07 A3022 RMK A01 T00311066  RH  049%=      5-min Rain = 0
KMCS 192025Z 34019G25KT 03/M06 A3021 RMK A01 T00341063  RH  049%=      5-min Rain = 0
KMCS 192030Z 34020G27KT 04/M06 A3021 RMK A01 T00351063  RH  049%=      5-min Rain = 0
KMCS 192035Z 33019KT 03/M06 A3021 RMK A01 T00341060  RH  050%=      5-min Rain = 0
KMCS 192040Z 33021G27KT 04/M06 A3021 RMK A01 T00361060  RH  050%=      5-min Rain = 0
KMCS 192045Z 33021G27KT 04/M06 A3021 RMK A01 T00371059  RH  050%=      5-min Rain = 0
KMCS 192050Z 33020G26KT 04/M06 A3021 RMK A01 T00401058  RH  049%=      5-min Rain = 0
KMCS 192055Z 34022G27KT 04/M06 A3021 RMK A01 T00371061  RH  049%=      5-min Rain = 0
KMCS 192100Z 34019G25KT 04/M06 A3021 RMK A01 T00371058  RH  050%=      5-min Rain = 0
KMCS 192105Z 33022G28KT 04/M06 A3021 RMK A01 T00371058  RH  050%=      5-min Rain = 0
KMCS 192110Z 32021KT 04/M06 A3021 RMK A01 T00371058  RH  050%=      5-min Rain = 0
KMCS 192115Z 34019G25KT 04/M06 A3022 RMK A01 T00411056  RH  049%=      5-min Rain = 0
KMCS 192120Z 33020G27KT 04/M06 A3022 RMK A01 T00401056  RH  050%=      5-min Rain = 0
KMCS 192125Z 34021G30KT 04/M06 A3022 RMK A01 T00381055  RH  051%=      5-min Rain = 0
KMCS 192130Z 34020G25KT 04/M05 A3022 RMK A01 T00411053  RH  051%=      5-min Rain = 0
KMCS 192135Z 34021G26KT 04/M05 A3022 RMK A01 T00401054  RH  050%=      5-min Rain = 0
KMCS 192140Z 34020G28KT 04/M05 A3022 RMK A01 T00381053  RH  052%=      5-min Rain = 0
KMCS 192145Z 34021G26KT 04/M05 A3022 RMK A01 T00391051  RH  052%=      5-min Rain = 0
KMCS 192150Z 33019G27KT 04/M05 A3022 RMK A01 T00391049  RH  053%=      5-min Rain = 0
KMCS 192155Z 33020G27KT 04/M05 A3022 RMK A01 T00381050  RH  053%=      5-min Rain = 0
KMCS 192200Z 34019KT 04/M05 A3022 RMK A01 T00381048  RH  053%=      5-min Rain = 0
KMCS 192205Z 34017G23KT 04/M05 A3023 RMK A01 T00401047  RH  053%=      5-min Rain = 0
KMCS 192210Z 34018G24KT 04/M05 A3023 RMK A01 T00391047  RH  054%=      5-min Rain = 0
KMCS 192215Z 33016G21KT 04/M05 A3023 RMK A01 T00401045  RH  054%=      5-min Rain = 0
KMCS 192220Z 33016G22KT 04/M05 A3024 RMK A01 T00401046  RH  054%=      5-min Rain = 0
KMCS 192225Z 33016G21KT 04/M05 A3024 RMK A01 T00391045  RH  055%=      5-min Rain = 0
KMCS 192230Z 33015KT 04/M04 A3024 RMK A01 T00391044  RH  055%=      5-min Rain = 0
KMCS 192235Z 33016KT 04/M04 A3023 RMK A01 T00401044  RH  054%=      5-min Rain = 0
KMCS 192240Z 33018G23KT 04/M05 A3023 RMK A01 T00371046  RH  055%=      5-min Rain = 0
KMCS 192245Z 33016G21KT 04/M05 A3023 RMK A01 T00361045  RH  056%=      5-min Rain = 0
KMCS 192250Z 34016G21KT 04/M04 A3023 RMK A01 T00361044  RH  056%=      5-min Rain = 0
KMCS 192255Z 32015G20KT 04/M04 A3023 RMK A01 T00371043  RH  056%=      5-min Rain = 0
KMCS 192300Z 33014G19KT 04/M04 A3023 RMK A01 T00371043  RH  056%=      5-min Rain = 0
KMCS 192305Z 33014G19KT 04/M04 A3024 RMK A01 T00361043  RH  057%=      5-min Rain = 0
KMCS 192310Z 33014KT 03/M04 A3024 RMK A01 T00341043  RH  057%=      5-min Rain = 0
KMCS 192315Z 34013KT 03/M04 A3024 RMK A01 T00341043  RH  058%=      5-min Rain = 0
KMCS 192320Z 34013G18KT 03/M04 A3024 RMK A01 T00331042  RH  058%=      5-min Rain = 0
KMCS 192325Z 33013G18KT 03/M04 A3024 RMK A01 T00311041  RH  059%=      5-min Rain = 0
KMCS 192330Z 33014KT 03/M04 A3024 RMK A01 T00311041  RH  059%=      5-min Rain = 0
KMCS 192335Z 33012KT 03/M04 A3025 RMK A01 T00301041  RH  060%=      5-min Rain = 0
KMCS 192340Z 32011KT 03/M04 A3025 RMK A01 T00271042  RH  061%=      5-min Rain = 0
KMCS 192345Z 33012KT 02/M04 A3025 RMK A01 T00241042  RH  062%=      5-min Rain = 0
KMCS 192350Z 33011KT 02/M04 A3025 RMK A01 T00221043  RH  062%=      5-min Rain = 0
KMCS 192355Z 32010KT 02/M04 A3025 RMK A01 T00201043  RH  063%=      5-min Rain = 0
KMCS 200000Z 33008KT 02/M04 A3025 RMK A01 T00161044  RH  065%=      5-min Rain = 0
KMCS 200005Z 32007KT 01/M05 A3025 RMK A01 T00111045  RH  066%=      5-min Rain = 0
KMCS 200010Z 33005KT 01/M05 A3025 RMK A01 T00091046  RH  067%=      5-min Rain = 0
KMCS 200015Z 33004KT 01/M05 A3026 RMK A01 T00071046  RH  068%=      5-min Rain = 0
KMCS 200020Z 33004KT 00/M05 A3026 RMK A01 T00041047  RH  069%=      5-min Rain = 0
KMCS 200025Z 33003KT 00/M05 A3026 RMK A01 T00031046  RH  070%=      5-min Rain = 0
KMCS 200030Z 30003KT 00/M05 A3026 RMK A01 T00021045  RH  071%=      5-min Rain = 0
KMCS 200035Z 31003KT 00/M05 A3026 RMK A01 T00031045  RH  071%=      5-min Rain = 0
KMCS 200040Z 32004KT 00/M05 A3026 RMK A01 T00031045  RH  071%=      5-min Rain = 0
KMCS 200045Z 32005KT 00/M05 A3026 RMK A01 T00011046  RH  071%=      5-min Rain = 0
KMCS 200050Z 32006KT M00/M05 A3026 RMK A01 T10021046  RH  072%=      5-min Rain = 0
KMCS 200055Z 33007KT M00/M05 A3025 RMK A01 T10041046  RH  073%=      5-min Rain = 0
KMCS 200100Z 33007KT M01/M05 A3026 RMK A01 T10051046  RH  074%=      5-min Rain = 0
KMCS 200105Z 34006KT M01/M05 A3026 RMK A01 T10081047  RH  075%=      5-min Rain = 0
KMCS 200110Z 35006KT M01/M05 A3025 RMK A01 T10071045  RH  076%=      5-min Rain = 0
KMCS 200115Z 35006KT M01/M05 A3025 RMK A01 T10061045  RH  075%=      5-min Rain = 0
KMCS 200120Z 34006KT M01/M05 A3025 RMK A01 T10121049  RH  076%=      5-min Rain = 0
KMCS 200125Z 34008KT M02/M05 A3024 RMK A01 T10151048  RH  078%=      5-min Rain = 0
KMCS 200130Z 34007KT M01/M05 A3024 RMK A01 T10131047  RH  078%=      5-min Rain = 0
KMCS 200135Z 32005KT M02/M05 A3024 RMK A01 T10201053  RH  078%=      5-min Rain = 0
KMCS 200140Z 30004KT M03/M05 A3024 RMK A01 T10261054  RH  081%=      5-min Rain = 0
KMCS 200145Z 33004KT M03/M05 A3024 RMK A01 T10271054  RH  082%=      5-min Rain = 0
KMCS 200150Z 33004KT M02/M05 A3024 RMK A01 T10211049  RH  081%=      5-min Rain = 0
KMCS 200155Z 32004KT M02/M05 A3024 RMK A01 T10191048  RH  080%=      5-min Rain = 0
KMCS 200200Z 33004KT M02/M05 A3024 RMK A01 T10171048  RH  080%=      5-min Rain = 0
KMCS 200205Z 34004KT M02/M05 A3024 RMK A01 T10161047  RH  080%=      5-min Rain = 0
KMCS 200210Z 35004KT M01/M05 A3024 RMK A01 T10141046  RH  079%=      5-min Rain = 0
KMCS 200215Z 35006KT M01/M05 A3025 RMK A01 T10121045  RH  079%=      5-min Rain = 0
KMCS 200220Z 34006KT M01/M05 A3025 RMK A01 T10141046  RH  079%=      5-min Rain = 0
KMCS 200225Z 33006KT M02/M05 A3026 RMK A01 T10151045  RH  080%=      5-min Rain = 0
KMCS 200230Z 32007KT M02/M05 A3026 RMK A01 T10201049  RH  081%=      5-min Rain = 0
KMCS 200235Z 33007KT M02/M05 A3026 RMK A01 T10221048  RH  083%=      5-min Rain = 0
KMCS 200240Z 32007KT M03/M05 A3026 RMK A01 T10251050  RH  083%=      5-min Rain = 0
KMCS 200245Z 32008KT M03/M05 A3026 RMK A01 T10261050  RH  084%=      5-min Rain = 0
KMCS 200250Z 32008KT M02/M05 A3025 RMK A01 T10241049  RH  084%=      5-min Rain = 0
KMCS 200255Z 31008KT M03/M05 A3025 RMK A01 T10271051  RH  084%=      5-min Rain = 0
KMCS 200300Z 32008KT M03/M05 A3026 RMK A01 T10281051  RH  085%=      5-min Rain = 0
KMCS 200305Z 33008KT M02/M05 A3026 RMK A01 T10241048  RH  084%=      5-min Rain = 0
KMCS 200310Z 33008KT M02/M05 A3026 RMK A01 T10221047  RH  083%=      5-min Rain = 0
KMCS 200315Z 33008KT M02/M05 A3025 RMK A01 T10221047  RH  083%=      5-min Rain = 0
KMCS 200320Z 33008KT M02/M05 A3025 RMK A01 T10211047  RH  083%=      5-min Rain = 0
KMCS 200325Z 33009KT M02/M05 A3025 RMK A01 T10221047  RH  083%=      5-min Rain = 0
KMCS 200330Z 33009KT M02/M05 A3025 RMK A01 T10221047  RH  083%=      5-min Rain = 0
KMCS 200335Z 34009KT M02/M05 A3025 RMK A01 T10211047  RH  083%=      5-min Rain = 0
KMCS 200340Z 34009KT M02/M05 A3025 RMK A01 T10221046  RH  084%=      5-min Rain = 0
KMCS 200345Z 36007KT M02/M05 A3025 RMK A01 T10211045  RH  084%=      5-min Rain = 0
KMCS 200350Z 00007KT M02/M04 A3025 RMK A01 T10191043  RH  084%=      5-min Rain = 0
KMCS 200355Z 00007KT M02/M04 A3024 RMK A01 T10161041  RH  084%=      5-min Rain = 0
KMCS 200400Z 00007KT M02/M04 A3024 RMK A01 T10161042  RH  083%=      5-min Rain = 0
KMCS 200405Z 01007KT M02/M04 A3023 RMK A01 T10161041  RH  083%=      5-min Rain = 0
KMCS 200410Z 02008KT M01/M04 A3023 RMK A01 T10081036  RH  082%=      5-min Rain = 0
KMCS 200415Z 03008KT M00/M04 A3023 RMK A01 T10041036  RH  079%=      5-min Rain = 0
KMCS 200420Z 03007KT M01/M04 A3024 RMK A01 T10051037  RH  079%=      5-min Rain = 0
KMCS 200425Z 04006KT M01/M04 A3024 RMK A01 T10091039  RH  080%=      5-min Rain = 0
KMCS 200430Z 05006KT M01/M04 A3023 RMK A01 T10131041  RH  082%=      5-min Rain = 0
KMCS 200435Z 05006KT M02/M05 A3024 RMK A01 T10191045  RH  083%=      5-min Rain = 0
KMCS 200440Z 08006KT M03/M05 A3024 RMK A01 T10271050  RH  084%=      5-min Rain = 0
KMCS 200445Z 11004KT M04/M05 A3024 RMK A01 T10351054  RH  087%=      5-min Rain = 0
KMCS 200450Z 12004KT M04/M05 A3024 RMK A01 T10361054  RH  088%=      5-min Rain = 0
KMCS 200455Z 19005KT M04/M05 A3026 RMK A01 T10351052  RH  088%=      5-min Rain = 0
KMCS 200500Z 20003KT M03/M05 A3026 RMK A01 T10341052  RH  088%=      5-min Rain = 0
KMCS 200505Z 21006KT M03/M05 A3026 RMK A01 T10341052  RH  088%=      5-min Rain = 0
KMCS 200510Z 20005KT M03/M05 A3026 RMK A01 T10331051  RH  088%=      5-min Rain = 0
KMCS 200515Z 20003KT M04/M05 A3026 RMK A01 T10351053  RH  088%=      5-min Rain = 0
KMCS 200520Z 22003KT M04/M05 A3026 RMK A01 T10351053  RH  088%=      5-min Rain = 0
KMCS 200525Z 17001KT M04/M05 A3026 RMK A01 T10361053  RH  088%=      5-min Rain = 0
KMCS 200530Z 08002KT M04/M05 A3026 RMK A01 T10371053  RH  089%=      5-min Rain = 0
KMCS 200535Z 08003KT M04/M05 A3026 RMK A01 T10361052  RH  089%=      5-min Rain = 0
KMCS 200540Z 08003KT M03/M05 A3026 RMK A01 T10341051  RH  089%=      5-min Rain = 0
KMCS 200545Z 13004KT M04/M06 A3026 RMK A01 T10381056  RH  088%=      5-min Rain = 0
KMCS 200550Z 11004KT M04/M05 A3026 RMK A01 T10391054  RH  089%=      5-min Rain = 0
KMCS 200555Z 13004KT M04/M05 A3025 RMK A01 T10371052  RH  090%=      5-min Rain = 0

Page generated in 0.0097 seconds.